sensor_id;sensor_type;location;lat;lon;timestamp;P1;durP1;ratioP1;P2;durP2;ratioP2
20441;SDS011;10380;52.102;20.614;2024-01-15T00:00:29;11.97;;;8.30;;
20441;SDS011;10380;52.102;20.614;2024-01-15T00:02:56;15.00;;;8.70;;
20441;SDS011;10380;52.102;20.614;2024-01-15T00:05:24;12.67;;;9.03;;
20441;SDS011;10380;52.102;20.614;2024-01-15T00:07:51;12.43;;;9.20;;
20441;SDS011;10380;52.102;20.614;2024-01-15T00:10:18;12.00;;;9.17;;
20441;SDS011;10380;52.102;20.614;2024-01-15T00:12:45;15.87;;;9.70;;
20441;SDS011;10380;52.102;20.614;2024-01-15T00:15:12;12.00;;;8.63;;
20441;SDS011;10380;52.102;20.614;2024-01-15T00:17:39;14.80;;;9.80;;
20441;SDS011;10380;52.102;20.614;2024-01-15T00:20:07;13.37;;;9.07;;
20441;SDS011;10380;52.102;20.614;2024-01-15T00:22:34;16.20;;;9.17;;
20441;SDS011;10380;52.102;20.614;2024-01-15T00:25:02;14.43;;;8.90;;
20441;SDS011;10380;52.102;20.614;2024-01-15T00:27:29;14.13;;;8.47;;
20441;SDS011;10380;52.102;20.614;2024-01-15T00:29:56;10.47;;;8.13;;
20441;SDS011;10380;52.102;20.614;2024-01-15T00:32:24;14.00;;;9.30;;
20441;SDS011;10380;52.102;20.614;2024-01-15T00:34:51;12.83;;;8.90;;
20441;SDS011;10380;52.102;20.614;2024-01-15T00:37:18;14.83;;;9.27;;
20441;SDS011;10380;52.102;20.614;2024-01-15T00:39:45;12.63;;;8.63;;
20441;SDS011;10380;52.102;20.614;2024-01-15T00:42:12;10.67;;;8.93;;
20441;SDS011;10380;52.102;20.614;2024-01-15T00:44:39;13.13;;;8.40;;
20441;SDS011;10380;52.102;20.614;2024-01-15T00:47:06;11.97;;;8.17;;
20441;SDS011;10380;52.102;20.614;2024-01-15T00:49:33;13.50;;;8.77;;
20441;SDS011;10380;52.102;20.614;2024-01-15T00:52:00;13.37;;;9.30;;
20441;SDS011;10380;52.102;20.614;2024-01-15T00:54:27;12.77;;;9.80;;
20441;SDS011;10380;52.102;20.614;2024-01-15T00:56:56;18.97;;;10.60;;
20441;SDS011;10380;52.102;20.614;2024-01-15T00:59:23;14.83;;;9.53;;
20441;SDS011;10380;52.102;20.614;2024-01-15T01:01:51;13.43;;;9.67;;
20441;SDS011;10380;52.102;20.614;2024-01-15T01:04:18;15.67;;;10.93;;
20441;SDS011;10380;52.102;20.614;2024-01-15T01:06:45;16.97;;;11.03;;
20441;SDS011;10380;52.102;20.614;2024-01-15T01:09:12;18.87;;;11.03;;
20441;SDS011;10380;52.102;20.614;2024-01-15T01:11:40;15.40;;;10.60;;
20441;SDS011;10380;52.102;20.614;2024-01-15T01:14:07;19.80;;;11.03;;
20441;SDS011;10380;52.102;20.614;2024-01-15T01:16:34;13.37;;;11.03;;
20441;SDS011;10380;52.102;20.614;2024-01-15T01:19:06;16.43;;;9.67;;
20441;SDS011;10380;52.102;20.614;2024-01-15T01:21:34;16.90;;;11.07;;
20441;SDS011;10380;52.102;20.614;2024-01-15T01:24:01;18.87;;;11.53;;
20441;SDS011;10380;52.102;20.614;2024-01-15T01:26:28;16.63;;;11.10;;
20441;SDS011;10380;52.102;20.614;2024-01-15T01:28:55;14.70;;;10.53;;
20441;SDS011;10380;52.102;20.614;2024-01-15T01:31:23;16.73;;;11.17;;
20441;SDS011;10380;52.102;20.614;2024-01-15T01:33:50;17.77;;;11.23;;
20441;SDS011;10380;52.102;20.614;2024-01-15T01:36:17;15.70;;;11.20;;
20441;SDS011;10380;52.102;20.614;2024-01-15T01:38:45;16.87;;;11.87;;
20441;SDS011;10380;52.102;20.614;2024-01-15T01:41:12;18.77;;;11.60;;
20441;SDS011;10380;52.102;20.614;2024-01-15T01:43:40;20.73;;;11.13;;
20441;SDS011;10380;52.102;20.614;2024-01-15T01:46:07;17.07;;;11.90;;
20441;SDS011;10380;52.102;20.614;2024-01-15T01:48:35;17.37;;;11.27;;
20441;SDS011;10380;52.102;20.614;2024-01-15T01:51:03;18.47;;;11.10;;
20441;SDS011;10380;52.102;20.614;2024-01-15T01:53:32;14.87;;;10.70;;
20441;SDS011;10380;52.102;20.614;2024-01-15T01:56:01;19.43;;;11.73;;
20441;SDS011;10380;52.102;20.614;2024-01-15T01:58:29;20.47;;;11.83;;
20441;SDS011;10380;52.102;20.614;2024-01-15T02:00:58;16.90;;;11.73;;
20441;SDS011;10380;52.102;20.614;2024-01-15T02:03:27;16.13;;;11.13;;
20441;SDS011;10380;52.102;20.614;2024-01-15T02:05:55;17.40;;;11.27;;
20441;SDS011;10380;52.102;20.614;2024-01-15T02:08:22;14.73;;;11.30;;
20441;SDS011;10380;52.102;20.614;2024-01-15T02:10:49;17.70;;;12.17;;
20441;SDS011;10380;52.102;20.614;2024-01-15T02:13:17;17.87;;;11.63;;
20441;SDS011;10380;52.102;20.614;2024-01-15T02:15:45;14.93;;;11.13;;
20441;SDS011;10380;52.102;20.614;2024-01-15T02:18:12;18.77;;;10.90;;
20441;SDS011;10380;52.102;20.614;2024-01-15T02:20:40;18.50;;;11.23;;
20441;SDS011;10380;52.102;20.614;2024-01-15T02:23:10;16.67;;;10.17;;
20441;SDS011;10380;52.102;20.614;2024-01-15T02:25:43;17.27;;;11.03;;
20441;SDS011;10380;52.102;20.614;2024-01-15T02:28:12;20.77;;;12.60;;
20441;SDS011;10380;52.102;20.614;2024-01-15T02:30:43;14.07;;;10.10;;
20441;SDS011;10380;52.102;20.614;2024-01-15T02:33:11;17.73;;;10.63;;
20441;SDS011;10380;52.102;20.614;2024-01-15T02:35:39;16.90;;;10.97;;
20441;SDS011;10380;52.102;20.614;2024-01-15T02:38:07;15.53;;;10.33;;
20441;SDS011;10380;52.102;20.614;2024-01-15T02:40:34;16.07;;;9.57;;
20441;SDS011;10380;52.102;20.614;2024-01-15T02:43:02;15.83;;;10.93;;
20441;SDS011;10380;52.102;20.614;2024-01-15T02:45:29;12.90;;;9.87;;
20441;SDS011;10380;52.102;20.614;2024-01-15T02:47:56;14.73;;;10.07;;
20441;SDS011;10380;52.102;20.614;2024-01-15T02:50:23;17.87;;;11.20;;
20441;SDS011;10380;52.102;20.614;2024-01-15T02:52:51;16.10;;;10.20;;
20441;SDS011;10380;52.102;20.614;2024-01-15T02:55:18;15.63;;;10.13;;
20441;SDS011;10380;52.102;20.614;2024-01-15T02:57:45;12.97;;;9.67;;
20441;SDS011;10380;52.102;20.614;2024-01-15T03:00:12;17.70;;;11.53;;
20441;SDS011;10380;52.102;20.614;2024-01-15T03:02:40;18.63;;;11.27;;
20441;SDS011;10380;52.102;20.614;2024-01-15T03:05:11;15.90;;;10.57;;
20441;SDS011;10380;52.102;20.614;2024-01-15T03:07:38;12.30;;;8.87;;
20441;SDS011;10380;52.102;20.614;2024-01-15T03:10:05;18.00;;;11.43;;
20441;SDS011;10380;52.102;20.614;2024-01-15T03:12:33;16.47;;;10.73;;
20441;SDS011;10380;52.102;20.614;2024-01-15T03:15:00;15.53;;;10.17;;
20441;SDS011;10380;52.102;20.614;2024-01-15T03:17:29;13.97;;;9.83;;
20441;SDS011;10380;52.102;20.614;2024-01-15T03:19:56;15.40;;;10.30;;
20441;SDS011;10380;52.102;20.614;2024-01-15T03:22:23;17.37;;;11.13;;
20441;SDS011;10380;52.102;20.614;2024-01-15T03:24:52;18.37;;;11.17;;
20441;SDS011;10380;52.102;20.614;2024-01-15T03:27:19;17.63;;;11.87;;
20441;SDS011;10380;52.102;20.614;2024-01-15T03:29:46;18.03;;;11.77;;
20441;SDS011;10380;52.102;20.614;2024-01-15T03:32:13;15.03;;;10.07;;
20441;SDS011;10380;52.102;20.614;2024-01-15T03:34:42;19.80;;;12.17;;
20441;SDS011;10380;52.102;20.614;2024-01-15T03:37:09;17.87;;;11.03;;
20441;SDS011;10380;52.102;20.614;2024-01-15T03:39:36;16.37;;;10.43;;
20441;SDS011;10380;52.102;20.614;2024-01-15T03:42:03;20.80;;;10.50;;
20441;SDS011;10380;52.102;20.614;2024-01-15T03:44:30;19.40;;;10.53;;
20441;SDS011;10380;52.102;20.614;2024-01-15T03:46:57;19.13;;;11.40;;
20441;SDS011;10380;52.102;20.614;2024-01-15T03:49:24;16.17;;;10.47;;
20441;SDS011;10380;52.102;20.614;2024-01-15T03:51:51;15.03;;;10.43;;
20441;SDS011;10380;52.102;20.614;2024-01-15T03:54:18;16.37;;;10.40;;
20441;SDS011;10380;52.102;20.614;2024-01-15T03:56:46;15.90;;;9.70;;
20441;SDS011;10380;52.102;20.614;2024-01-15T03:59:13;17.53;;;10.47;;
20441;SDS011;10380;52.102;20.614;2024-01-15T04:01:40;15.63;;;10.23;;
20441;SDS011;10380;52.102;20.614;2024-01-15T04:04:14;17.43;;;9.30;;
20441;SDS011;10380;52.102;20.614;2024-01-15T04:06:43;15.53;;;10.47;;
20441;SDS011;10380;52.102;20.614;2024-01-15T04:09:11;13.73;;;9.13;;
20441;SDS011;10380;52.102;20.614;2024-01-15T04:11:39;14.73;;;9.13;;
20441;SDS011;10380;52.102;20.614;2024-01-15T04:14:07;12.27;;;9.17;;
20441;SDS011;10380;52.102;20.614;2024-01-15T04:16:34;14.73;;;10.20;;
20441;SDS011;10380;52.102;20.614;2024-01-15T04:19:01;13.43;;;8.93;;
20441;SDS011;10380;52.102;20.614;2024-01-15T04:21:28;14.30;;;9.10;;
20441;SDS011;10380;52.102;20.614;2024-01-15T04:23:55;14.43;;;9.13;;
20441;SDS011;10380;52.102;20.614;2024-01-15T04:26:22;12.37;;;8.20;;
20441;SDS011;10380;52.102;20.614;2024-01-15T04:28:49;13.97;;;9.03;;
20441;SDS011;10380;52.102;20.614;2024-01-15T04:31:23;12.97;;;9.23;;
20441;SDS011;10380;52.102;20.614;2024-01-15T04:33:51;11.50;;;8.33;;
20441;SDS011;10380;52.102;20.614;2024-01-15T04:36:19;12.80;;;8.90;;
20441;SDS011;10380;52.102;20.614;2024-01-15T04:38:46;13.83;;;9.47;;
20441;SDS011;10380;52.102;20.614;2024-01-15T04:41:13;12.23;;;9.17;;
20441;SDS011;10380;52.102;20.614;2024-01-15T04:43:41;13.67;;;9.77;;
20441;SDS011;10380;52.102;20.614;2024-01-15T04:46:08;16.37;;;9.90;;
20441;SDS011;10380;52.102;20.614;2024-01-15T04:48:36;12.73;;;8.30;;
20441;SDS011;10380;52.102;20.614;2024-01-15T04:51:04;15.03;;;8.93;;
20441;SDS011;10380;52.102;20.614;2024-01-15T04:53:33;13.90;;;9.17;;
20441;SDS011;10380;52.102;20.614;2024-01-15T04:56:01;11.80;;;8.03;;
20441;SDS011;10380;52.102;20.614;2024-01-15T04:58:28;13.37;;;9.53;;
20441;SDS011;10380;52.102;20.614;2024-01-15T05:00:55;15.87;;;9.63;;
20441;SDS011;10380;52.102;20.614;2024-01-15T05:03:23;14.73;;;9.70;;
20441;SDS011;10380;52.102;20.614;2024-01-15T05:05:50;14.53;;;10.10;;
20441;SDS011;10380;52.102;20.614;2024-01-15T05:08:18;13.70;;;9.90;;
20441;SDS011;10380;52.102;20.614;2024-01-15T05:10:45;10.57;;;7.40;;
20441;SDS011;10380;52.102;20.614;2024-01-15T05:13:12;16.37;;;9.93;;
20441;SDS011;10380;52.102;20.614;2024-01-15T05:15:39;14.30;;;10.13;;
20441;SDS011;10380;52.102;20.614;2024-01-15T05:18:07;14.07;;;9.07;;
20441;SDS011;10380;52.102;20.614;2024-01-15T05:20:35;17.03;;;10.30;;
20441;SDS011;10380;52.102;20.614;2024-01-15T05:23:02;14.10;;;9.27;;
20441;SDS011;10380;52.102;20.614;2024-01-15T05:25:29;14.43;;;9.33;;
20441;SDS011;10380;52.102;20.614;2024-01-15T05:27:56;14.03;;;9.40;;
20441;SDS011;10380;52.102;20.614;2024-01-15T05:30:23;14.30;;;10.07;;
20441;SDS011;10380;52.102;20.614;2024-01-15T05:32:51;14.57;;;10.07;;
20441;SDS011;10380;52.102;20.614;2024-01-15T05:35:18;14.97;;;10.57;;
20441;SDS011;10380;52.102;20.614;2024-01-15T05:37:45;12.17;;;7.70;;
20441;SDS011;10380;52.102;20.614;2024-01-15T05:40:12;13.50;;;9.67;;
20441;SDS011;10380;52.102;20.614;2024-01-15T05:42:40;14.07;;;10.10;;
20441;SDS011;10380;52.102;20.614;2024-01-15T05:45:08;13.63;;;9.57;;
20441;SDS011;10380;52.102;20.614;2024-01-15T05:47:36;13.63;;;10.40;;
20441;SDS011;10380;52.102;20.614;2024-01-15T05:50:03;13.37;;;9.93;;
20441;SDS011;10380;52.102;20.614;2024-01-15T05:52:30;12.57;;;8.60;;
20441;SDS011;10380;52.102;20.614;2024-01-15T05:54:57;15.50;;;9.17;;
20441;SDS011;10380;52.102;20.614;2024-01-15T05:57:24;12.93;;;8.40;;
20441;SDS011;10380;52.102;20.614;2024-01-15T05:59:52;11.40;;;8.17;;
20441;SDS011;10380;52.102;20.614;2024-01-15T06:02:19;13.70;;;9.47;;
20441;SDS011;10380;52.102;20.614;2024-01-15T06:04:46;15.77;;;10.60;;
20441;SDS011;10380;52.102;20.614;2024-01-15T06:07:13;17.27;;;10.63;;
20441;SDS011;10380;52.102;20.614;2024-01-15T06:09:40;15.00;;;9.37;;
20441;SDS011;10380;52.102;20.614;2024-01-15T06:12:07;16.07;;;11.27;;
20441;SDS011;10380;52.102;20.614;2024-01-15T06:14:34;16.23;;;11.17;;
20441;SDS011;10380;52.102;20.614;2024-01-15T06:17:01;17.10;;;9.83;;
20441;SDS011;10380;52.102;20.614;2024-01-15T06:19:29;15.97;;;11.03;;
20441;SDS011;10380;52.102;20.614;2024-01-15T06:21:56;16.57;;;11.23;;
20441;SDS011;10380;52.102;20.614;2024-01-15T06:24:23;15.87;;;11.37;;
20441;SDS011;10380;52.102;20.614;2024-01-15T06:26:50;19.20;;;11.93;;
20441;SDS011;10380;52.102;20.614;2024-01-15T06:29:18;14.57;;;10.23;;
20441;SDS011;10380;52.102;20.614;2024-01-15T06:31:45;12.47;;;10.80;;
20441;SDS011;10380;52.102;20.614;2024-01-15T06:34:12;15.63;;;11.00;;
20441;SDS011;10380;52.102;20.614;2024-01-15T06:36:39;14.07;;;10.50;;
20441;SDS011;10380;52.102;20.614;2024-01-15T06:39:07;14.37;;;9.40;;
20441;SDS011;10380;52.102;20.614;2024-01-15T06:41:34;15.87;;;10.17;;
20441;SDS011;10380;52.102;20.614;2024-01-15T06:44:04;16.10;;;11.30;;
20441;SDS011;10380;52.102;20.614;2024-01-15T06:46:31;13.47;;;9.30;;
20441;SDS011;10380;52.102;20.614;2024-01-15T06:48:58;18.60;;;10.57;;
20441;SDS011;10380;52.102;20.614;2024-01-15T06:51:25;14.47;;;11.10;;
20441;SDS011;10380;52.102;20.614;2024-01-15T06:53:52;13.80;;;10.47;;
20441;SDS011;10380;52.102;20.614;2024-01-15T06:56:20;16.47;;;10.20;;
20441;SDS011;10380;52.102;20.614;2024-01-15T06:58:47;10.20;;;7.60;;
20441;SDS011;10380;52.102;20.614;2024-01-15T07:01:15;11.57;;;8.77;;
20441;SDS011;10380;52.102;20.614;2024-01-15T07:03:42;15.40;;;9.53;;
20441;SDS011;10380;52.102;20.614;2024-01-15T07:06:09;14.47;;;8.93;;
20441;SDS011;10380;52.102;20.614;2024-01-15T07:08:37;13.87;;;9.90;;
20441;SDS011;10380;52.102;20.614;2024-01-15T07:11:04;13.60;;;9.43;;
20441;SDS011;10380;52.102;20.614;2024-01-15T07:13:32;15.17;;;8.90;;
20441;SDS011;10380;52.102;20.614;2024-01-15T07:15:59;13.10;;;9.17;;
20441;SDS011;10380;52.102;20.614;2024-01-15T07:18:26;13.50;;;9.53;;
20441;SDS011;10380;52.102;20.614;2024-01-15T07:20:53;14.20;;;10.77;;
20441;SDS011;10380;52.102;20.614;2024-01-15T07:23:20;16.67;;;10.00;;
20441;SDS011;10380;52.102;20.614;2024-01-15T07:25:47;14.50;;;9.33;;
20441;SDS011;10380;52.102;20.614;2024-01-15T07:28:14;14.37;;;8.83;;
20441;SDS011;10380;52.102;20.614;2024-01-15T07:30:41;13.30;;;9.63;;
20441;SDS011;10380;52.102;20.614;2024-01-15T07:33:08;14.77;;;10.40;;
20441;SDS011;10380;52.102;20.614;2024-01-15T07:35:35;14.23;;;10.43;;
20441;SDS011;10380;52.102;20.614;2024-01-15T07:38:02;15.83;;;10.30;;
20441;SDS011;10380;52.102;20.614;2024-01-15T07:40:29;15.90;;;10.13;;
20441;SDS011;10380;52.102;20.614;2024-01-15T07:42:56;16.03;;;9.93;;
20441;SDS011;10380;52.102;20.614;2024-01-15T07:45:23;14.20;;;9.20;;
20441;SDS011;10380;52.102;20.614;2024-01-15T07:47:50;14.73;;;10.17;;
20441;SDS011;10380;52.102;20.614;2024-01-15T07:50:17;15.30;;;9.70;;
20441;SDS011;10380;52.102;20.614;2024-01-15T07:52:44;14.73;;;9.70;;
20441;SDS011;10380;52.102;20.614;2024-01-15T07:55:11;14.87;;;10.47;;
20441;SDS011;10380;52.102;20.614;2024-01-15T07:57:38;14.47;;;9.30;;
20441;SDS011;10380;52.102;20.614;2024-01-15T08:00:05;14.27;;;10.03;;
20441;SDS011;10380;52.102;20.614;2024-01-15T08:02:32;14.67;;;9.63;;
20441;SDS011;10380;52.102;20.614;2024-01-15T08:05:03;13.87;;;9.37;;
20441;SDS011;10380;52.102;20.614;2024-01-15T08:07:30;14.60;;;10.40;;
20441;SDS011;10380;52.102;20.614;2024-01-15T08:09:57;10.43;;;7.80;;
20441;SDS011;10380;52.102;20.614;2024-01-15T08:12:24;14.23;;;9.83;;
20441;SDS011;10380;52.102;20.614;2024-01-15T08:14:51;16.53;;;9.77;;
20441;SDS011;10380;52.102;20.614;2024-01-15T08:17:18;16.57;;;11.07;;
20441;SDS011;10380;52.102;20.614;2024-01-15T08:19:45;11.67;;;9.27;;
20441;SDS011;10380;52.102;20.614;2024-01-15T08:22:12;18.20;;;11.57;;
20441;SDS011;10380;52.102;20.614;2024-01-15T08:24:39;16.83;;;10.63;;
20441;SDS011;10380;52.102;20.614;2024-01-15T08:27:07;18.57;;;12.37;;
20441;SDS011;10380;52.102;20.614;2024-01-15T08:29:34;19.03;;;12.53;;
20441;SDS011;10380;52.102;20.614;2024-01-15T08:32:01;15.07;;;10.37;;
20441;SDS011;10380;52.102;20.614;2024-01-15T08:34:28;17.27;;;10.67;;
20441;SDS011;10380;52.102;20.614;2024-01-15T08:36:57;13.63;;;9.03;;
20441;SDS011;10380;52.102;20.614;2024-01-15T08:39:24;14.93;;;9.93;;
20441;SDS011;10380;52.102;20.614;2024-01-15T08:41:51;14.60;;;10.13;;
20441;SDS011;10380;52.102;20.614;2024-01-15T08:44:18;12.07;;;8.37;;
20441;SDS011;10380;52.102;20.614;2024-01-15T08:46:45;16.00;;;9.90;;
20441;SDS011;10380;52.102;20.614;2024-01-15T08:49:12;16.00;;;9.07;;
20441;SDS011;10380;52.102;20.614;2024-01-15T08:51:39;10.97;;;8.70;;
20441;SDS011;10380;52.102;20.614;2024-01-15T08:54:06;13.07;;;9.87;;
20441;SDS011;10380;52.102;20.614;2024-01-15T08:56:34;10.53;;;7.57;;
20441;SDS011;10380;52.102;20.614;2024-01-15T08:59:01;16.50;;;9.73;;
20441;SDS011;10380;52.102;20.614;2024-01-15T09:01:29;13.70;;;9.00;;
20441;SDS011;10380;52.102;20.614;2024-01-15T09:03:57;9.63;;;6.40;;
20441;SDS011;10380;52.102;20.614;2024-01-15T09:06:24;12.47;;;7.80;;
20441;SDS011;10380;52.102;20.614;2024-01-15T09:08:51;11.37;;;8.13;;
20441;SDS011;10380;52.102;20.614;2024-01-15T09:11:18;11.90;;;7.97;;
20441;SDS011;10380;52.102;20.614;2024-01-15T09:13:45;13.03;;;8.67;;
20441;SDS011;10380;52.102;20.614;2024-01-15T09:16:12;11.00;;;6.43;;
20441;SDS011;10380;52.102;20.614;2024-01-15T09:18:39;9.60;;;5.80;;
20441;SDS011;10380;52.102;20.614;2024-01-15T09:21:06;13.60;;;7.13;;
20441;SDS011;10380;52.102;20.614;2024-01-15T09:23:33;13.47;;;5.97;;
20441;SDS011;10380;52.102;20.614;2024-01-15T09:26:00;11.67;;;7.43;;
20441;SDS011;10380;52.102;20.614;2024-01-15T09:28:26;10.43;;;6.67;;
20441;SDS011;10380;52.102;20.614;2024-01-15T09:30:54;10.23;;;6.03;;
20441;SDS011;10380;52.102;20.614;2024-01-15T09:33:21;11.33;;;5.83;;
20441;SDS011;10380;52.102;20.614;2024-01-15T09:35:48;12.03;;;6.30;;
20441;SDS011;10380;52.102;20.614;2024-01-15T09:38:15;9.83;;;6.40;;
20441;SDS011;10380;52.102;20.614;2024-01-15T09:40:43;11.87;;;6.33;;
20441;SDS011;10380;52.102;20.614;2024-01-15T09:43:12;9.77;;;6.13;;
20441;SDS011;10380;52.102;20.614;2024-01-15T09:45:41;12.10;;;7.30;;
20441;SDS011;10380;52.102;20.614;2024-01-15T09:48:09;12.37;;;6.87;;
20441;SDS011;10380;52.102;20.614;2024-01-15T09:50:36;12.90;;;6.37;;
20441;SDS011;10380;52.102;20.614;2024-01-15T09:53:05;11.03;;;6.00;;
20441;SDS011;10380;52.102;20.614;2024-01-15T09:55:32;11.00;;;6.43;;
20441;SDS011;10380;52.102;20.614;2024-01-15T09:57:59;11.13;;;6.77;;
20441;SDS011;10380;52.102;20.614;2024-01-15T10:00:29;8.93;;;5.97;;
20441;SDS011;10380;52.102;20.614;2024-01-15T10:03:00;7.73;;;5.83;;
20441;SDS011;10380;52.102;20.614;2024-01-15T10:05:27;10.90;;;6.17;;
20441;SDS011;10380;52.102;20.614;2024-01-15T10:07:54;10.10;;;6.27;;
20441;SDS011;10380;52.102;20.614;2024-01-15T10:10:23;7.70;;;5.70;;
20441;SDS011;10380;52.102;20.614;2024-01-15T10:12:50;10.90;;;5.77;;
20441;SDS011;10380;52.102;20.614;2024-01-15T10:15:17;11.97;;;6.67;;
20441;SDS011;10380;52.102;20.614;2024-01-15T10:17:44;12.77;;;6.50;;
20441;SDS011;10380;52.102;20.614;2024-01-15T10:20:12;8.83;;;6.47;;
20441;SDS011;10380;52.102;20.614;2024-01-15T10:22:42;11.87;;;6.20;;
20441;SDS011;10380;52.102;20.614;2024-01-15T10:25:10;7.40;;;5.40;;
20441;SDS011;10380;52.102;20.614;2024-01-15T10:27:38;10.60;;;5.90;;
20441;SDS011;10380;52.102;20.614;2024-01-15T10:30:06;11.33;;;6.47;;
20441;SDS011;10380;52.102;20.614;2024-01-15T10:32:34;7.83;;;6.07;;
20441;SDS011;10380;52.102;20.614;2024-01-15T10:35:01;16.60;;;8.53;;
20441;SDS011;10380;52.102;20.614;2024-01-15T10:37:32;11.73;;;8.60;;
20441;SDS011;10380;52.102;20.614;2024-01-15T10:40:03;14.97;;;7.43;;
20441;SDS011;10380;52.102;20.614;2024-01-15T10:42:33;23.63;;;13.77;;
20441;SDS011;10380;52.102;20.614;2024-01-15T10:45:00;37.50;;;24.07;;
20441;SDS011;10380;52.102;20.614;2024-01-15T10:47:27;12.10;;;8.43;;
20441;SDS011;10380;52.102;20.614;2024-01-15T10:49:55;15.73;;;9.90;;
20441;SDS011;10380;52.102;20.614;2024-01-15T10:52:22;16.40;;;9.33;;
20441;SDS011;10380;52.102;20.614;2024-01-15T10:54:50;14.67;;;8.00;;
20441;SDS011;10380;52.102;20.614;2024-01-15T10:57:17;17.47;;;8.87;;
20441;SDS011;10380;52.102;20.614;2024-01-15T10:59:46;12.23;;;8.53;;
20441;SDS011;10380;52.102;20.614;2024-01-15T11:02:14;11.00;;;7.23;;
20441;SDS011;10380;52.102;20.614;2024-01-15T11:04:41;14.93;;;8.57;;
20441;SDS011;10380;52.102;20.614;2024-01-15T11:07:08;18.37;;;9.60;;
20441;SDS011;10380;52.102;20.614;2024-01-15T11:09:38;14.03;;;8.17;;
20441;SDS011;10380;52.102;20.614;2024-01-15T11:12:12;12.93;;;8.07;;
20441;SDS011;10380;52.102;20.614;2024-01-15T11:14:40;14.90;;;8.13;;
20441;SDS011;10380;52.102;20.614;2024-01-15T11:17:11;16.77;;;8.07;;
20441;SDS011;10380;52.102;20.614;2024-01-15T11:24:56;17.03;;;7.53;;
20441;SDS011;10380;52.102;20.614;2024-01-15T11:30:13;13.03;;;8.47;;
20441;SDS011;10380;52.102;20.614;2024-01-15T11:32:41;12.33;;;7.33;;
20441;SDS011;10380;52.102;20.614;2024-01-15T11:35:09;15.30;;;9.17;;
20441;SDS011;10380;52.102;20.614;2024-01-15T11:40:21;15.60;;;9.50;;
20441;SDS011;10380;52.102;20.614;2024-01-15T11:42:49;16.53;;;8.70;;
20441;SDS011;10380;52.102;20.614;2024-01-15T11:45:19;11.87;;;7.73;;
20441;SDS011;10380;52.102;20.614;2024-01-15T11:50:26;16.23;;;8.43;;
20441;SDS011;10380;52.102;20.614;2024-01-15T11:53:03;13.07;;;8.27;;
20441;SDS011;10380;52.102;20.614;2024-01-15T11:55:50;12.73;;;8.27;;
20441;SDS011;10380;52.102;20.614;2024-01-15T11:58:19;12.60;;;7.80;;
20441;SDS011;10380;52.102;20.614;2024-01-15T12:00:47;10.60;;;6.67;;
20441;SDS011;10380;52.102;20.614;2024-01-15T12:03:22;13.27;;;8.73;;
20441;SDS011;10380;52.102;20.614;2024-01-15T12:05:50;14.03;;;8.60;;
20441;SDS011;10380;52.102;20.614;2024-01-15T12:08:22;17.47;;;9.07;;
20441;SDS011;10380;52.102;20.614;2024-01-15T12:10:50;10.33;;;7.77;;
20441;SDS011;10380;52.102;20.614;2024-01-15T12:13:17;14.80;;;8.20;;
20441;SDS011;10380;52.102;20.614;2024-01-15T12:15:45;14.93;;;8.47;;
20441;SDS011;10380;52.102;20.614;2024-01-15T12:18:13;15.93;;;8.93;;
20441;SDS011;10380;52.102;20.614;2024-01-15T12:20:43;12.57;;;7.67;;
20441;SDS011;10380;52.102;20.614;2024-01-15T12:23:10;11.77;;;7.20;;
20441;SDS011;10380;52.102;20.614;2024-01-15T12:25:38;18.13;;;9.87;;
20441;SDS011;10380;52.102;20.614;2024-01-15T12:28:05;20.77;;;12.20;;
20441;SDS011;10380;52.102;20.614;2024-01-15T12:30:33;16.70;;;10.27;;
20441;SDS011;10380;52.102;20.614;2024-01-15T12:33:02;16.23;;;9.93;;
20441;SDS011;10380;52.102;20.614;2024-01-15T12:35:30;19.87;;;11.37;;
20441;SDS011;10380;52.102;20.614;2024-01-15T12:37:59;19.30;;;11.03;;
20441;SDS011;10380;52.102;20.614;2024-01-15T12:40:28;17.33;;;9.07;;
20441;SDS011;10380;52.102;20.614;2024-01-15T12:42:55;14.80;;;8.90;;
20441;SDS011;10380;52.102;20.614;2024-01-15T12:45:23;16.60;;;9.23;;
20441;SDS011;10380;52.102;20.614;2024-01-15T12:47:50;17.67;;;11.37;;
20441;SDS011;10380;52.102;20.614;2024-01-15T12:50:18;17.40;;;10.97;;
20441;SDS011;10380;52.102;20.614;2024-01-15T12:52:46;18.33;;;9.30;;
20441;SDS011;10380;52.102;20.614;2024-01-15T12:55:13;18.80;;;11.10;;
20441;SDS011;10380;52.102;20.614;2024-01-15T12:57:41;20.23;;;12.97;;
20441;SDS011;10380;52.102;20.614;2024-01-15T13:00:09;23.37;;;13.57;;
20441;SDS011;10380;52.102;20.614;2024-01-15T13:02:40;27.70;;;12.07;;
20441;SDS011;10380;52.102;20.614;2024-01-15T13:05:08;24.87;;;12.70;;
20441;SDS011;10380;52.102;20.614;2024-01-15T13:07:38;28.17;;;17.57;;
20441;SDS011;10380;52.102;20.614;2024-01-15T13:10:05;19.50;;;10.70;;
20441;SDS011;10380;52.102;20.614;2024-01-15T13:12:33;15.83;;;9.70;;
20441;SDS011;10380;52.102;20.614;2024-01-15T13:15:01;19.20;;;12.10;;
20441;SDS011;10380;52.102;20.614;2024-01-15T13:17:30;19.17;;;10.30;;
20441;SDS011;10380;52.102;20.614;2024-01-15T13:19:57;17.43;;;11.20;;
20441;SDS011;10380;52.102;20.614;2024-01-15T13:22:25;18.23;;;9.80;;
20441;SDS011;10380;52.102;20.614;2024-01-15T13:24:56;18.47;;;9.37;;
20441;SDS011;10380;52.102;20.614;2024-01-15T13:27:23;14.27;;;9.43;;
20441;SDS011;10380;52.102;20.614;2024-01-15T13:29:50;16.07;;;8.93;;
20441;SDS011;10380;52.102;20.614;2024-01-15T13:32:22;14.30;;;8.60;;
20441;SDS011;10380;52.102;20.614;2024-01-15T13:34:56;18.17;;;9.17;;
20441;SDS011;10380;52.102;20.614;2024-01-15T13:37:23;14.37;;;9.23;;
20441;SDS011;10380;52.102;20.614;2024-01-15T13:39:52;17.77;;;9.33;;
20441;SDS011;10380;52.102;20.614;2024-01-15T13:42:20;18.70;;;10.50;;
20441;SDS011;10380;52.102;20.614;2024-01-15T13:44:49;18.00;;;9.53;;
20441;SDS011;10380;52.102;20.614;2024-01-15T13:47:16;14.60;;;7.17;;
20441;SDS011;10380;52.102;20.614;2024-01-15T13:49:43;13.93;;;8.40;;
20441;SDS011;10380;52.102;20.614;2024-01-15T13:52:10;12.77;;;8.30;;
20441;SDS011;10380;52.102;20.614;2024-01-15T13:54:37;17.07;;;8.50;;
20441;SDS011;10380;52.102;20.614;2024-01-15T13:57:15;14.77;;;9.47;;
20441;SDS011;10380;52.102;20.614;2024-01-15T13:59:43;17.70;;;8.60;;
20441;SDS011;10380;52.102;20.614;2024-01-15T14:02:10;17.33;;;9.47;;
20441;SDS011;10380;52.102;20.614;2024-01-15T14:04:40;19.80;;;10.67;;
20441;SDS011;10380;52.102;20.614;2024-01-15T14:07:08;29.43;;;15.37;;
20441;SDS011;10380;52.102;20.614;2024-01-15T14:09:35;27.07;;;15.10;;
20441;SDS011;10380;52.102;20.614;2024-01-15T14:12:04;20.73;;;11.50;;
20441;SDS011;10380;52.102;20.614;2024-01-15T14:14:32;17.27;;;10.93;;
20441;SDS011;10380;52.102;20.614;2024-01-15T14:17:00;16.43;;;9.40;;
20441;SDS011;10380;52.102;20.614;2024-01-15T14:19:27;18.60;;;9.90;;
20441;SDS011;10380;52.102;20.614;2024-01-15T14:21:54;15.10;;;8.40;;
20441;SDS011;10380;52.102;20.614;2024-01-15T14:24:22;16.43;;;9.87;;
20441;SDS011;10380;52.102;20.614;2024-01-15T14:26:49;18.80;;;8.90;;
20441;SDS011;10380;52.102;20.614;2024-01-15T14:29:16;17.13;;;10.90;;
20441;SDS011;10380;52.102;20.614;2024-01-15T14:31:45;17.80;;;9.20;;